Time;durP1;ratioP1;P1;durP2;ratioP2;P2;SDS_P1;SDS_P2;PMS_P1;PMS_P2;Temp;Humidity;BMP_temperature;BMP_pressure;BME280_temperature;BME280_humidity;BME280_pressure;Samples;Min_cycle;Max_cycle;Signal;HPM_P1;HPM_P2
2024/03/17 00:02:42;;;;;;;13.40;3.70;;;;;;;5.16;100.00;100939.49;5099740;55;1138630;-76
2024/03/17 00:07:47;;;;;;;14.67;3.50;;;;;;;5.07;100.00;100940.77;5105917;56;1168580;-76
2024/03/17 00:12:53;;;;;;;12.03;2.70;;;;;;;5.07;100.00;100944.70;5120300;56;1138414;-74
2024/03/17 00:17:59;;;;;;;9.08;2.37;;;;;;;5.06;100.00;100940.84;5099214;56;1138624;-75
2024/03/17 00:23:09;;;;;;;8.87;2.27;;;;;;;5.08;100.00;100948.17;5092309;56;1136654;-75
2024/03/17 00:28:14;;;;;;;12.82;2.60;;;;;;;5.14;100.00;100949.20;5100561;56;1136675;-75
2024/03/17 00:33:20;;;;;;;10.45;2.62;;;;;;;5.19;100.00;100948.53;5119932;56;1138760;-75
2024/03/17 00:38:26;;;;;;;12.40;2.67;;;;;;;5.20;100.00;100954.12;5092034;56;1172441;-76
2024/03/17 00:43:31;;;;;;;21.53;3.17;;;;;;;5.16;100.00;100971.80;5079255;56;1155541;-75
2024/03/17 00:48:37;;;;;;;7.77;2.13;;;;;;;5.05;100.00;100967.52;5098553;56;1138521;-74
2024/03/17 00:53:43;;;;;;;13.87;3.03;;;;;;;5.05;100.00;100967.52;5079257;57;1164672;-75
2024/03/17 00:58:51;;;;;;;18.23;3.60;;;;;;;5.08;100.00;100962.13;5078785;56;1184180;-76
2024/03/17 01:03:55;;;;;;;8.97;2.37;;;;;;;5.11;100.00;100959.37;5099382;56;1138793;-74
2024/03/17 01:09:02;;;;;;;14.20;3.40;;;;;;;5.16;100.00;100951.29;5081869;56;1136569;-76
2024/03/17 01:14:07;;;;;;;14.90;2.30;;;;;;;5.18;100.00;100941.58;4980333;57;1244913;-76
2024/03/17 01:19:13;;;;;;;13.50;2.17;;;;;;;5.13;100.00;100937.86;5016381;57;1138776;-76
2024/03/17 01:24:20;;;;;;;10.90;2.30;;;;;;;5.11;100.00;100938.39;4996619;57;1139242;-76
2024/03/17 01:29:25;;;;;;;14.77;2.17;;;;;;;5.10;100.00;100935.37;4995377;57;1186393;-75
2024/03/17 01:34:31;;;;;;;14.13;1.73;;;;;;;5.12;100.00;100935.31;5016024;58;1138817;-75
2024/03/17 01:39:37;;;;;;;7.17;2.03;;;;;;;5.13;100.00;100936.55;5019017;56;1244369;-76
2024/03/17 01:44:42;;;;;;;13.23;2.37;;;;;;;5.10;100.00;100935.37;5095657;56;1248834;-76
2024/03/17 01:49:50;;;;;;;8.07;1.97;;;;;;;5.05;100.00;100924.26;5117626;56;1238438;-76
2024/03/17 01:54:56;;;;;;;11.67;1.67;;;;;;;5.04;100.00;100929.60;5096112;56;1248076;-75
2024/03/17 02:00:01;;;;;;;13.53;1.97;;;;;;;4.98;100.00;100925.95;5095774;56;1249016;-74
2024/03/17 02:05:10;;;;;;;9.60;1.90;;;;;;;4.95;100.00;100929.56;5096864;56;1260426;-76
2024/03/17 02:10:15;;;;;;;12.57;1.50;;;;;;;4.96;100.00;100920.78;5124271;56;1254007;-76
2024/03/17 02:15:21;;;;;;;12.33;1.50;;;;;;;4.95;100.00;100917.77;5095783;55;1250616;-75
2024/03/17 02:25:51;;;;;;;8.00;1.50;;;;;;;4.99;100.00;100917.17;5117296;56;1249088;-75
2024/03/17 02:30:56;;;;;;;12.93;2.42;;;;;;;4.99;100.00;100916.70;5098959;56;1136520;-75
2024/03/17 02:36:03;;;;;;;9.17;1.60;;;;;;;5.00;100.00;100921.49;5095908;56;1138495;-76
2024/03/17 02:41:09;;;;;;;11.80;1.87;;;;;;;4.98;100.00;100920.71;5099806;56;1136597;-76
2024/03/17 02:46:19;;;;;;;11.50;3.00;;;;;;;4.94;100.00;100919.54;5119390;56;1138904;-76
2024/03/17 02:51:25;;;;;;;13.57;1.53;;;;;;;4.94;100.00;100921.31;5100022;56;1139179;-75
2024/03/17 02:56:30;;;;;;;10.17;1.90;;;;;;;4.90;100.00;100925.84;5100016;56;1138942;-77
2024/03/17 03:01:36;;;;;;;16.03;2.07;;;;;;;4.86;100.00;100920.38;5120160;56;1138873;-76
2024/03/17 03:06:41;;;;;;;14.33;1.93;;;;;;;4.85;100.00;100918.69;5104255;55;1138546;-75
2024/03/17 03:11:48;;;;;;;5.20;1.53;;;;;;;4.82;100.00;100924.06;5102349;56;1192412;-76
2024/03/17 03:16:54;;;;;;;6.37;1.80;;;;;;;4.78;100.00;100922.96;5120637;55;1136690;-74
2024/03/17 03:21:59;;;;;;;11.37;2.50;;;;;;;4.79;100.00;100912.87;5100235;55;1136838;-76
2024/03/17 03:27:05;;;;;;;4.30;1.30;;;;;;;4.79;100.00;100898.00;5080393;55;1138512;-75
2024/03/17 03:32:10;;;;;;;10.80;1.82;;;;;;;4.75;100.00;100893.81;5098488;55;1249559;-76
2024/03/17 03:37:16;;;;;;;5.65;1.77;;;;;;;4.71;100.00;100901.45;5120140;56;1138735;-75
2024/03/17 03:42:23;;;;;;;9.78;1.55;;;;;;;4.70;100.00;100899.76;5099221;55;1189534;-76
2024/03/17 03:47:28;;;;;;;19.57;2.02;;;;;;;4.67;100.00;100911.69;5099983;56;1136507;-74
2024/03/17 03:52:34;;;;;;;13.37;1.67;;;;;;;4.65;100.00;100909.59;5120078;56;1139211;-74
2024/03/17 03:57:39;;;;;;;12.17;2.93;;;;;;;4.65;100.00;100907.44;5099960;56;1138606;-76
2024/03/17 04:02:45;;;;;;;6.67;1.47;;;;;;;4.62;100.00;100910.19;5099928;56;1138466;-75
2024/03/17 04:07:51;;;;;;;11.80;1.80;;;;;;;4.62;100.00;100914.97;5126466;56;1136753;-75
2024/03/17 04:12:57;;;;;;;13.03;2.10;;;;;;;4.61;100.00;100917.20;5100757;56;1138349;-75
2024/03/17 04:18:02;;;;;;;19.87;2.63;;;;;;;4.58;100.00;100910.81;5100170;56;1138566;-74
2024/03/17 04:23:08;;;;;;;10.43;1.90;;;;;;;4.61;100.00;100926.37;5100119;56;1138678;-77
2024/03/17 04:28:14;;;;;;;12.93;2.02;;;;;;;4.58;100.00;100914.25;5117021;55;1138842;-76
2024/03/17 04:33:20;;;;;;;10.72;1.98;;;;;;;4.60;100.00;100920.27;5100163;56;1138865;-75
2024/03/17 04:38:25;;;;;;;12.77;1.77;;;;;;;4.62;100.00;100921.52;5099516;56;1138700;-74
2024/03/17 04:43:34;;;;;;;12.27;2.53;;;;;;;4.57;100.00;100913.89;5119840;56;1138509;-74
2024/03/17 04:48:40;;;;;;;17.40;2.77;;;;;;;4.60;100.00;100913.73;5084072;56;1138547;-75
2024/03/17 04:53:45;;;;;;;18.90;2.13;;;;;;;4.54;100.00;100915.34;5079634;56;1138851;-76
2024/03/17 04:58:51;;;;;;;8.43;1.60;;;;;;;4.56;100.00;100929.68;5099713;56;1138342;-76
2024/03/17 05:03:57;;;;;;;7.85;1.50;;;;;;;4.57;100.00;100928.77;5079700;56;1136315;-75
2024/03/17 05:09:04;;;;;;;8.23;1.30;;;;;;;4.53;100.00;100935.91;5079793;56;1136494;-76
2024/03/17 05:14:11;;;;;;;9.65;2.15;;;;;;;4.54;100.00;100948.08;5080158;56;1136735;-76
2024/03/17 05:19:17;;;;;;;9.17;1.80;;;;;;;4.56;100.00;100953.25;5090594;56;1137021;-74
2024/03/17 05:24:23;;;;;;;14.00;1.80;;;;;;;4.58;100.00;100953.55;5078544;56;1136902;-76
2024/03/17 05:29:28;;;;;;;10.70;2.20;;;;;;;4.57;100.00;100953.65;5078803;56;1138650;-76
2024/03/17 05:34:34;;;;;;;6.70;1.13;;;;;;;4.51;100.00;100977.03;5084888;56;1138857;-75
2024/03/17 05:39:39;;;;;;;4.05;1.40;;;;;;;4.52;100.00;100988.36;5051535;56;1136824;-75
2024/03/17 05:44:52;;;;;;;8.17;1.30;;;;;;;4.51;100.00;100995.36;5025390;55;1136577;-75
2024/03/17 05:49:58;;;;;;;8.65;1.70;;;;;;;4.53;100.00;100993.53;5080549;57;1136432;-73
2024/03/17 05:55:04;;;;;;;13.43;2.77;;;;;;;4.55;100.00;101008.72;5079599;56;1136696;-74
2024/03/17 06:00:15;;;;;;;9.35;1.85;;;;;;;4.54;100.00;101018.80;5080038;56;1138943;-75
2024/03/17 06:05:18;;;;;;;7.07;2.67;;;;;;;4.48;100.00;101032.16;5098798;56;1136641;-76
2024/03/17 06:10:24;;;;;;;4.12;1.47;;;;;;;4.39;100.00;101033.89;5080300;56;1136788;-76
2024/03/17 06:15:30;;;;;;;3.23;1.40;;;;;;;4.26;100.00;101034.03;5079643;56;1136559;-75
2024/03/17 06:20:36;;;;;;;5.70;1.37;;;;;;;4.16;100.00;101044.48;5093274;57;1136587;-74
2024/03/17 06:25:47;;;;;;;4.13;1.20;;;;;;;4.06;100.00;101052.34;5078666;56;1136570;-76
2024/03/17 06:31:04;;;;;;;7.60;1.40;;;;;;;3.99;100.00;101052.20;5078175;56;1136656;-75
2024/03/17 06:36:08;;;;;;;10.35;1.80;;;;;;;3.99;100.00;101059.59;5056857;57;1137402;-74
2024/03/17 06:41:14;;;;;;;4.40;1.47;;;;;;;4.00;100.00;101059.98;5093516;56;1138746;-74
2024/03/17 06:46:20;;;;;;;3.35;1.72;;;;;;;4.03;100.00;101069.48;5076778;56;1136673;-74
2024/03/17 06:51:26;;;;;;;5.50;1.72;;;;;;;4.04;100.00;101066.80;5090568;56;1136595;-74
2024/03/17 06:56:32;;;;;;;5.53;2.00;;;;;;;4.08;100.00;101076.70;5119168;56;1136500;-77
2024/03/17 07:01:38;;;;;;;10.75;2.90;;;;;;;4.14;100.00;101083.81;5099319;56;1136519;-74
2024/03/17 07:06:43;;;;;;;2.53;1.90;;;;;;;4.17;100.00;101087.62;5103033;56;1138631;-76
2024/03/17 07:11:50;;;;;;;6.10;1.97;;;;;;;4.23;100.00;101095.69;5122116;56;1136822;-77
2024/03/17 07:16:56;;;;;;;9.20;5.47;;;;;;;4.25;100.00;101100.41;5096013;56;1136871;-76
2024/03/17 07:22:02;;;;;;;5.97;3.43;;;;;;;4.29;100.00;101099.34;5099424;56;1136788;-77
2024/03/17 07:27:12;;;;;;;6.70;3.00;;;;;;;4.27;100.00;101108.20;5116110;56;1136697;-77
2024/03/17 07:32:16;;;;;;;6.08;2.85;;;;;;;4.27;100.00;101108.20;5106400;56;1136503;-76
2024/03/17 07:37:21;;;;;;;4.12;1.72;;;;;;;3.94;100.00;101116.98;5099930;56;1136530;-75
2024/03/17 07:42:27;;;;;;;1.33;1.23;;;;;;;3.70;100.00;101127.50;5094196;56;1136815;-74
2024/03/17 07:47:35;;;;;;;5.17;2.00;;;;;;;3.70;100.00;101124.03;5036105;55;1136919;-74
2024/03/17 07:52:39;;;;;;;3.00;1.40;;;;;;;3.76;100.00;101115.50;5009017;57;1136239;-73
2024/03/17 07:57:45;;;;;;;4.53;2.62;;;;;;;3.87;100.00;101122.45;5020293;57;1136587;-76
2024/03/17 08:02:51;;;;;;;2.90;0.83;;;;;;;4.01;100.00;101123.66;5016328;58;1136437;-74
2024/03/17 08:07:57;;;;;;;1.77;1.07;;;;;;;4.08;100.00;101125.13;5054487;56;1136647;-75
2024/03/17 08:13:05;;;;;;;1.35;0.88;;;;;;;4.21;100.00;101135.02;5062447;56;1136636;-74
2024/03/17 08:18:11;;;;;;;1.30;0.73;;;;;;;4.42;100.00;101138.97;5060440;56;1136547;-77
2024/03/17 08:23:18;;;;;;;2.00;0.97;;;;;;;4.57;100.00;101139.17;5099055;56;1136562;-74
2024/03/17 08:28:25;;;;;;;3.40;1.20;;;;;;;4.67;100.00;101142.69;5078933;57;1136444;-75
2024/03/17 08:33:32;;;;;;;1.80;0.90;;;;;;;4.66;100.00;101140.53;5078861;56;1136520;-75
2024/03/17 08:38:39;;;;;;;1.83;0.90;;;;;;;4.71;100.00;101153.44;5099595;56;1136606;-76
2024/03/17 08:43:44;;;;;;;1.73;0.70;;;;;;;4.72;100.00;101146.83;5080127;56;1136652;-76
2024/03/17 08:48:50;;;;;;;0.90;0.90;;;;;;;4.73;100.00;101149.84;5079542;55;1136530;-75
2024/03/17 08:53:57;;;;;;;3.50;1.20;;;;;;;4.73;100.00;101151.61;5103457;56;1136543;-75
2024/03/17 08:59:02;;;;;;;3.97;1.47;;;;;;;4.81;100.00;101146.41;5098228;56;1136558;-77
2024/03/17 09:04:11;;;;;;;2.73;1.10;;;;;;;4.98;100.00;101146.13;5100076;56;1136289;-75
2024/03/17 09:09:15;;;;;;;9.78;2.10;;;;;;;5.02;100.00;101146.40;5084079;56;1136419;-77
2024/03/17 09:14:21;;;;;;;0.50;0.50;;;;;;;4.91;100.00;101158.19;4983522;56;1136487;-77
2024/03/17 09:19:33;;;;;;;3.50;1.30;;;;;;;4.86;100.00;101148.84;4964197;56;1136352;-75
2024/03/17 09:24:34;;;;;;;0.63;0.63;;;;;;;4.89;100.00;101156.09;4962845;56;1136561;-75
2024/03/17 09:29:40;;;;;;;2.00;1.30;;;;;;;4.84;100.00;101161.16;4983411;56;1136530;-74
2024/03/17 09:34:50;;;;;;;4.80;2.67;;;;;;;4.82;100.00;101161.69;5001123;56;1136533;-74
2024/03/17 09:39:57;;;;;;;3.60;1.10;;;;;;;4.76;100.00;101162.78;5044736;56;1136364;-76
2024/03/17 09:45:03;;;;;;;2.43;1.63;;;;;;;4.72;100.00;101166.48;5117558;56;1136450;-76
2024/03/17 09:50:14;;;;;;;4.93;1.20;;;;;;;4.67;100.00;101176.30;5098235;56;1136510;-77
2024/03/17 09:55:20;;;;;;;18.50;6.17;;;;;;;4.71;100.00;101174.41;5097655;56;1136680;-76
2024/03/17 10:00:25;;;;;;;8.28;2.92;;;;;;;4.76;100.00;101177.20;5099456;56;1138802;-75
2024/03/17 10:05:32;;;;;;;6.60;2.87;;;;;;;4.75;100.00;101181.19;5065819;56;1136728;-75
2024/03/17 10:10:38;;;;;;;7.40;3.67;;;;;;;4.73;100.00;101182.59;5034551;56;1136334;-76
2024/03/17 10:15:48;;;;;;;6.27;2.33;;;;;;;4.74;100.00;101188.66;5099492;56;1136400;-75
2024/03/17 10:20:58;;;;;;;2.57;1.70;;;;;;;4.78;100.00;101181.92;5075965;56;1136434;-74
2024/03/17 10:26:07;;;;;;;1.00;0.90;;;;;;;4.91;100.00;101179.61;5058561;56;1136829;-75
2024/03/17 10:31:13;;;;;;;2.98;1.00;;;;;;;4.92;100.00;101190.03;5077484;56;1137221;-74
2024/03/17 10:36:20;;;;;;;1.93;1.30;;;;;;;4.83;100.00;101188.28;5099947;56;1142571;-75
2024/03/17 10:41:28;;;;;;;4.03;2.00;;;;;;;4.74;100.00;101199.99;5066585;56;1136723;-75
2024/03/17 10:46:34;;;;;;;1.70;0.73;;;;;;;4.69;100.00;101214.22;5040431;56;1136419;-73
2024/03/17 10:51:40;;;;;;;1.90;1.00;;;;;;;4.65;100.00;101210.88;5058348;56;1136681;-73
2024/03/17 10:56:46;;;;;;;2.73;1.57;;;;;;;4.59;100.00;101222.45;5040213;56;1136670;-74
2024/03/17 11:01:53;;;;;;;1.80;1.63;;;;;;;4.61;100.00;101225.01;5055966;56;1136333;-74
2024/03/17 11:07:00;;;;;;;2.30;1.43;;;;;;;4.64;100.00;101231.89;5091098;56;1136714;-74
2024/03/17 11:12:06;;;;;;;5.33;1.77;;;;;;;4.69;100.00;101228.64;5046238;56;1136628;-74
2024/03/17 11:17:21;;;;;;;3.95;2.02;;;;;;;4.74;100.00;101220.95;5058929;56;1206084;-76
2024/03/17 11:22:45;;;;;;;1.90;0.68;;;;;;;4.86;100.00;101223.54;5077831;56;1136722;-74
2024/03/17 11:27:51;;;;;;;5.13;1.53;;;;;;;4.83;100.00;101224.97;5059783;56;1136380;-74
2024/03/17 11:32:57;;;;;;;1.43;1.10;;;;;;;4.88;100.00;101226.49;5055590;56;1136811;-74
2024/03/17 11:38:02;;;;;;;2.00;1.30;;;;;;;5.04;100.00;101217.97;5080784;56;1136835;-73
2024/03/17 11:43:10;;;;;;;2.03;1.00;;;;;;;4.98;100.00;101232.64;5074528;56;1136611;-75
2024/03/17 11:48:16;;;;;;;1.10;0.90;;;;;;;4.79;100.00;101239.97;5069547;56;1136888;-74
2024/03/17 11:53:22;;;;;;;1.50;0.60;;;;;;;4.64;100.00;101252.40;5120178;56;1136749;-73
2024/03/17 11:58:27;;;;;;;0.85;0.85;;;;;;;4.49;100.00;101263.50;5079618;56;1136801;-75
2024/03/17 12:03:33;;;;;;;7.10;3.37;;;;;;;4.22;100.00;101260.23;5010565;57;1136591;-75
2024/03/17 12:08:39;;;;;;;3.87;2.10;;;;;;;4.13;100.00;101256.19;5069939;57;1136544;-74
2024/03/17 12:13:44;;;;;;;3.67;2.50;;;;;;;4.19;100.00;101256.42;5027760;56;1136489;-76
2024/03/17 12:18:50;;;;;;;3.10;1.57;;;;;;;4.57;100.00;101245.72;5056908;56;1136975;-76
2024/03/17 12:23:55;;;;;;;1.97;1.50;;;;;;;4.57;100.00;101245.72;5099338;56;1136688;-73
2024/03/17 12:29:01;;;;;;;0.80;0.80;;;;;;;4.74;100.00;101247.16;5080207;55;1136704;-74
2024/03/17 12:34:07;;;;;;;3.67;2.47;;;;;;;4.71;100.00;101255.17;5080100;56;1136445;-76
2024/03/17 12:39:19;;;;;;;40.17;10.28;;;;;;;4.57;100.00;101258.37;5033268;56;1136351;-74
2024/03/17 12:44:25;;;;;;;4.00;1.73;;;;;;;4.28;100.00;101265.20;5016334;57;1140523;-76
2024/03/17 12:49:34;;;;;;;1.47;1.10;;;;;;;4.16;100.00;101276.16;4996838;56;1136903;-75
2024/03/17 12:54:39;;;;;;;3.00;1.37;;;;;;;4.10;100.00;101273.80;4993388;56;1136755;-76
2024/03/17 13:05:25;;;;;;;13.13;5.28;;;;;;;4.10;100.00;101271.19;4953779;57;1136703;-77
2024/03/17 13:10:34;;;;;;;14.37;5.47;;;;;;;4.21;100.00;101275.54;5012346;56;1138819;-73
2024/03/17 13:15:37;;;;;;;12.90;4.83;;;;;;;4.35;100.00;101271.06;4936079;57;1138939;-74
2024/03/17 13:20:42;;;;;;;11.10;5.57;;;;;;;4.41;100.00;101274.30;4935681;57;1138551;-74
2024/03/17 13:25:48;;;;;;;5.47;3.23;;;;;;;4.35;100.00;101277.16;4916838;57;1138435;-76
2024/03/17 13:30:53;;;;;;;8.50;3.00;;;;;;;4.32;100.00;101283.81;4936599;57;1136254;-75
2024/03/17 13:35:59;;;;;;;4.03;2.20;;;;;;;4.30;100.00;101287.41;4910669;57;1136241;-75
2024/03/17 13:41:05;;;;;;;7.83;3.63;;;;;;;4.27;100.00;101293.64;4993618;57;1136340;-78
2024/03/17 13:46:11;;;;;;;9.27;4.37;;;;;;;4.13;100.00;101297.22;4902094;57;1136992;-75
2024/03/17 13:51:17;;;;;;;3.57;1.13;;;;;;;4.17;100.00;101293.58;4885607;57;1136592;-73
2024/03/17 13:56:22;;;;;;;2.37;1.40;;;;;;;4.17;100.00;101294.44;4984223;57;1136563;-76
2024/03/17 14:01:28;;;;;;;2.10;1.20;;;;;;;4.16;100.00;101302.34;4996334;58;1136624;-75
2024/03/17 14:06:33;;;;;;;6.12;2.20;;;;;;;4.08;100.00;101301.80;4982472;56;1136546;-76
2024/03/17 14:11:39;;;;;;;4.73;2.00;;;;;;;4.04;100.00;101302.37;4939613;57;1136521;-76
2024/03/17 14:16:45;;;;;;;0.80;0.80;;;;;;;4.01;100.00;101300.31;4992577;56;1136372;-75
2024/03/17 14:21:51;;;;;;;2.30;1.50;;;;;;;4.03;100.00;101287.57;5082319;56;1136499;-77
2024/03/17 14:26:56;;;;;;;6.70;1.90;;;;;;;3.96;100.00;101295.73;4997325;56;1136436;-75
2024/03/17 14:32:02;;;;;;;3.20;1.73;;;;;;;3.89;100.00;101299.02;4997034;56;1136639;-75
2024/03/17 14:37:08;;;;;;;3.33;1.23;;;;;;;3.91;100.00;101302.89;4996170;57;1136716;-75
2024/03/17 14:42:13;;;;;;;2.27;1.00;;;;;;;3.98;100.00;101306.52;5016245;57;1137037;-75
2024/03/17 14:47:20;;;;;;;1.53;1.17;;;;;;;3.99;100.00;101306.06;5017983;56;1143279;-73
2024/03/17 14:52:26;;;;;;;1.60;0.70;;;;;;;3.95;100.00;101312.34;5064024;55;1136468;-75
2024/03/17 14:57:32;;;;;;;1.07;0.80;;;;;;;3.94;100.00;101303.64;5065144;56;1136914;-77
2024/03/17 15:02:38;;;;;;;2.47;1.60;;;;;;;3.94;100.00;101308.02;5079921;56;1136718;-77
2024/03/17 15:07:44;;;;;;;6.80;3.30;;;;;;;3.96;100.00;101300.52;5079529;56;1136594;-75
2024/03/17 15:12:49;;;;;;;14.60;5.10;;;;;;;3.97;100.00;101299.60;5099758;56;1136589;-74
2024/03/17 15:17:55;;;;;;;10.53;3.93;;;;;;;3.89;100.00;101312.11;5079930;56;1138471;-78
2024/03/17 15:23:01;;;;;;;7.63;2.83;;;;;;;3.83;100.00;101311.01;5078939;57;1138622;-77
2024/03/17 15:28:07;;;;;;;13.60;2.53;;;;;;;3.77;100.00;101315.18;5079137;56;1136781;-74
2024/03/17 15:33:12;;;;;;;3.83;1.00;;;;;;;3.66;100.00;101319.51;5098982;56;1138586;-75
2024/03/17 15:38:18;;;;;;;10.37;5.47;;;;;;;3.60;100.00;101326.25;5059750;55;1136753;-74
2024/03/17 15:43:24;;;;;;;11.77;6.03;;;;;;;3.54;100.00;101328.63;5057982;55;1138629;-73
2024/03/17 15:48:30;;;;;;;15.10;5.60;;;;;;;3.49;100.00;101324.03;5015968;57;1138604;-76
2024/03/17 15:53:35;;;;;;;5.53;3.33;;;;;;;3.49;100.00;101325.80;5018795;57;1138618;-74
2024/03/17 15:58:41;;;;;;;9.07;7.07;;;;;;;3.58;100.00;101318.05;4997511;56;1136550;-74
2024/03/17 16:03:46;;;;;;;6.57;3.60;;;;;;;3.58;100.00;101323.29;5016547;57;1136586;-74
2024/03/17 16:08:55;;;;;;;7.80;3.53;;;;;;;3.63;100.00;101322.68;5071151;56;1136651;-76
2024/03/17 16:14:02;;;;;;;6.33;3.50;;;;;;;3.59;100.00;101335.46;5073601;57;1136478;-74
2024/03/17 16:19:08;;;;;;;5.40;2.57;;;;;;;3.57;100.00;101336.82;5046583;56;1136447;-77
2024/03/17 16:24:16;;;;;;;7.83;3.77;;;;;;;3.54;100.00;101344.77;5025726;57;1136460;-76
2024/03/17 16:29:21;;;;;;;18.50;9.63;;;;;;;3.54;100.00;101356.09;4999721;57;1136707;-78
2024/03/17 16:34:32;;;;;;;33.80;17.50;;;;;;;3.53;100.00;101362.67;4998849;57;1138782;-77
2024/03/17 16:39:37;;;;;;;10.13;6.30;;;;;;;3.58;100.00;101365.99;5044037;56;1140948;-76
2024/03/17 16:44:58;;;;;;;4.27;2.80;;;;;;;3.54;100.00;101369.16;5008396;56;1138299;-77
2024/03/17 16:50:08;;;;;;;8.00;3.50;;;;;;;3.52;100.00;101369.66;5028270;56;1136443;-78
2024/03/17 16:55:16;;;;;;;8.30;6.00;;;;;;;3.50;100.00;101366.73;5080306;56;1136439;-78
2024/03/17 17:00:25;;;;;;;11.23;7.33;;;;;;;3.47;100.00;101368.14;5100440;57;1136429;-77
2024/03/17 17:05:29;;;;;;;39.70;17.62;;;;;;;3.49;100.00;101373.72;5079765;56;1138743;-77
2024/03/17 17:10:35;;;;;;;11.03;5.87;;;;;;;3.51;100.00;101374.49;5077540;56;1140501;-79
2024/03/17 17:15:41;;;;;;;21.67;11.97;;;;;;;3.40;100.00;101374.02;5098046;56;1138450;-79
2024/03/17 17:20:47;;;;;;;15.23;7.07;;;;;;;3.37;100.00;101379.34;5079312;56;1140662;-78
2024/03/17 17:25:53;;;;;;;21.17;11.60;;;;;;;3.42;100.00;101378.75;5079467;56;1138719;-77
2024/03/17 17:30:59;;;;;;;16.13;7.40;;;;;;;3.41;100.00;101384.88;5098852;56;1140637;-78
2024/03/17 17:36:13;;;;;;;14.95;6.33;;;;;;;3.49;100.00;101394.64;5054425;56;1138733;-77
2024/03/17 17:41:18;;;;;;;26.20;12.58;;;;;;;3.52;100.00;101392.34;5003628;56;1138428;-77
2024/03/17 17:46:31;;;;;;;23.87;13.03;;;;;;;3.52;100.00;101397.58;5080031;56;1140983;-78
2024/03/17 17:51:32;;;;;;;13.05;5.53;;;;;;;3.43;100.00;101391.37;5097481;56;1140974;-78
2024/03/17 17:56:38;;;;;;;11.70;6.27;;;;;;;3.38;100.00;101394.13;5020210;56;1138719;-78
2024/03/17 18:01:44;;;;;;;26.10;12.30;;;;;;;3.39;100.00;101401.52;5014031;57;1138924;-78
2024/03/17 18:06:50;;;;;;;18.90;9.00;;;;;;;3.36;100.00;101399.03;5056060;57;1140851;-76
2024/03/17 18:11:55;;;;;;;26.70;14.97;;;;;;;3.25;100.00;101405.05;5020128;57;1138867;-80
2024/03/17 18:17:01;;;;;;;55.20;26.40;;;;;;;3.15;100.00;101400.14;4996556;57;1140647;-78
2024/03/17 18:22:07;;;;;;;15.67;10.37;;;;;;;2.98;100.00;101402.45;4996701;57;1140813;-78
2024/03/17 18:27:13;;;;;;;30.77;20.77;;;;;;;3.00;100.00;101403.25;5016174;57;1140715;-78
2024/03/17 18:32:19;;;;;;;13.33;7.30;;;;;;;2.97;100.00;101394.66;5011115;56;1140807;-78
2024/03/17 18:37:26;;;;;;;9.80;4.03;;;;;;;2.97;100.00;101397.27;5080152;56;1138884;-78
2024/03/17 18:42:36;;;;;;;8.70;5.87;;;;;;;2.97;100.00;101403.34;5099693;56;1136517;-78
2024/03/17 18:47:41;;;;;;;19.37;8.27;;;;;;;3.03;100.00;101394.47;5079542;56;1136586;-78
2024/03/17 18:52:47;;;;;;;11.53;6.70;;;;;;;3.04;100.00;101402.71;5034454;56;1138682;-77
2024/03/17 18:57:53;;;;;;;12.60;5.97;;;;;;;3.01;100.00;101399.73;5063193;57;1139018;-77
2024/03/17 19:02:59;;;;;;;32.50;14.53;;;;;;;2.99;100.00;101400.69;5038739;56;1138447;-78
2024/03/17 19:08:05;;;;;;;51.40;19.63;;;;;;;3.02;100.00;101400.59;5041126;56;1140960;-77
2024/03/17 19:13:11;;;;;;;32.65;13.18;;;;;;;3.06;100.00;101404.80;5011357;57;1141157;-77
2024/03/17 19:18:17;;;;;;;38.60;13.80;;;;;;;3.06;100.00;101411.33;5049318;57;1140951;-78
2024/03/17 19:23:23;;;;;;;12.50;7.57;;;;;;;3.08;100.00;101407.77;5039820;56;1140746;-79
2024/03/17 19:28:29;;;;;;;22.33;7.00;;;;;;;3.05;100.00;101413.56;5058362;55;1138336;-78
2024/03/17 19:33:36;;;;;;;12.15;6.03;;;;;;;2.99;100.00;101418.98;5092434;56;1138588;-77
2024/03/17 19:38:44;;;;;;;20.85;7.53;;;;;;;3.03;100.00;101419.30;5072995;56;1138796;-77
2024/03/17 19:43:50;;;;;;;12.00;5.67;;;;;;;3.02;100.00;101424.11;5055432;56;1138771;-77
2024/03/17 19:48:57;;;;;;;18.20;8.63;;;;;;;3.00;100.00;101423.30;5079491;56;1139042;-77
2024/03/17 19:54:03;;;;;;;11.67;4.97;;;;;;;2.94;100.00;101429.56;5058526;56;1138742;-78
2024/03/17 19:59:08;;;;;;;9.97;4.20;;;;;;;2.88;100.00;101433.70;5064829;56;1138822;-77
2024/03/17 20:04:14;;;;;;;11.50;6.43;;;;;;;2.77;100.00;101435.31;5100175;56;1136925;-78
2024/03/17 20:09:19;;;;;;;8.37;3.20;;;;;;;2.67;100.00;101431.28;5102330;56;1138825;-78
2024/03/17 20:14:25;;;;;;;12.80;6.30;;;;;;;2.62;100.00;101426.64;5079083;56;1136595;-77
2024/03/17 20:19:31;;;;;;;17.15;7.65;;;;;;;2.61;100.00;101429.30;5082144;56;1138774;-78
2024/03/17 20:24:41;;;;;;;20.48;8.65;;;;;;;2.52;100.00;101420.45;5092849;56;1138675;-79
2024/03/17 20:29:44;;;;;;;15.47;5.63;;;;;;;2.39;100.00;101423.42;5077138;56;1138755;-78
2024/03/17 20:34:51;;;;;;;11.63;5.13;;;;;;;2.39;100.00;101417.34;5079929;56;1138575;-79
2024/03/17 20:39:57;;;;;;;11.97;3.67;;;;;;;2.36;100.00;101414.82;5099505;56;1138631;-79
2024/03/17 20:45:04;;;;;;;6.53;3.20;;;;;;;2.33;100.00;101413.16;5074000;55;1138686;-78
2024/03/17 20:50:13;;;;;;;12.23;3.90;;;;;;;2.33;100.00;101410.54;5052872;56;1136579;-78
2024/03/17 20:55:20;;;;;;;7.17;3.77;;;;;;;2.36;100.00;101413.52;5042630;56;1138545;-77
2024/03/17 21:00:27;;;;;;;7.00;3.30;;;;;;;2.36;100.00;101413.06;5055762;57;1136708;-77
2024/03/17 21:05:36;;;;;;;6.77;3.17;;;;;;;2.36;100.00;101406.54;5047863;56;1136597;-76
2024/03/17 21:10:41;;;;;;;9.85;4.17;;;;;;;2.38;100.00;101409.97;5041095;56;1136778;-76
2024/03/17 21:15:47;;;;;;;22.07;5.20;;;;;;;2.45;100.00;101404.09;5055640;56;1136719;-76
2024/03/17 21:20:52;;;;;;;15.67;4.60;;;;;;;2.41;100.00;101394.67;5053737;56;1138399;-77
2024/03/17 21:25:58;;;;;;;146.93;33.77;;;;;;;2.42;100.00;101395.93;5026670;56;1138667;-77
2024/03/17 21:31:04;;;;;;;150.73;37.13;;;;;;;2.40;100.00;101400.78;5077621;56;1142750;-75
2024/03/17 21:36:10;;;;;;;20.47;5.93;;;;;;;2.32;100.00;101400.14;5052269;56;1142748;-77
2024/03/17 21:41:19;;;;;;;12.63;4.45;;;;;;;2.27;100.00;101394.22;5096006;56;1138658;-75
2024/03/17 21:46:26;;;;;;;12.87;4.53;;;;;;;2.23;100.00;101393.91;5118279;56;1198563;-77
2024/03/17 21:51:30;;;;;;;5.17;2.10;;;;;;;2.23;100.00;101388.23;5094759;56;1139913;-76
2024/03/17 21:56:36;;;;;;;50.70;12.80;;;;;;;2.17;100.00;101385.78;5077715;56;1136408;-76
2024/03/17 22:01:41;;;;;;;7.00;2.90;;;;;;;2.11;100.00;101376.41;5119655;56;1140740;-77
2024/03/17 22:06:48;;;;;;;8.90;3.20;;;;;;;2.12;100.00;101377.26;5075050;56;1136552;-77
2024/03/17 22:11:53;;;;;;;9.00;2.57;;;;;;;2.16;100.00;101372.78;5055550;56;1136685;-77
2024/03/17 22:16:59;;;;;;;5.20;1.60;;;;;;;2.16;100.00;101361.89;5085867;56;1136539;-77
2024/03/17 22:22:05;;;;;;;6.28;2.67;;;;;;;2.15;100.00;101358.02;5075086;56;1136524;-77
2024/03/17 22:27:10;;;;;;;3.97;2.17;;;;;;;2.19;100.00;101357.89;5100170;56;1137164;-77
2024/03/17 22:32:16;;;;;;;13.18;3.30;;;;;;;2.18;100.00;101361.41;5072026;56;1136725;-77
2024/03/17 22:37:21;;;;;;;7.83;2.53;;;;;;;2.10;100.00;101359.48;5036003;57;1138313;-77
2024/03/17 22:42:27;;;;;;;4.77;2.20;;;;;;;2.04;100.00;101348.77;5022948;56;1136461;-76
2024/03/17 22:47:33;;;;;;;6.37;2.23;;;;;;;2.04;100.00;101355.73;5100214;56;1136716;-76
2024/03/17 22:52:38;;;;;;;1.57;1.30;;;;;;;1.95;100.00;101349.05;5120075;56;1136449;-76
2024/03/17 22:57:44;;;;;;;3.87;1.87;;;;;;;1.95;100.00;101349.05;5096216;56;1136364;-77
2024/03/17 23:02:49;;;;;;;4.40;1.70;;;;;;;1.91;100.00;101342.64;5099370;56;1136474;-77
2024/03/17 23:07:55;;;;;;;3.93;1.60;;;;;;;1.80;100.00;101340.36;5127082;56;1136573;-77
2024/03/17 23:13:00;;;;;;;3.30;1.47;;;;;;;1.76;100.00;101337.42;5097452;56;1136391;-77